Bojnord Airport

Airport
ICAO code: 
OIMN
IATA Code: 
BJB
Summary
ICAO Region: 
MID
Territory: 
Location: 
Bojnord, North Khorasan
Serving: 
Bojnord
Elevation: 
3499 ft
Coordinates: 
Aerial View: 
37° 29' 23.301" N, 57° 18' 27.78" E
Metar
Observation
OIMN 261900Z VRB02KT CAVOK 25/11 Q1008
Station
Bojnourd
Date/Time
2022-06-26 19:00:00
Wind speed
02 kts
Lowest cloud amount
clouds and visibility OK
Temperature
25°C
Dew point
11°C
Humidity
41%
QNH
1008 hPa
Weather condition
n/a

Airport serving Bojnord (also spelt Bojnourd or Bojnurd), the capital city of North Khorasan province, Iran.

Climatology

Cold Semi-arid climate (Köppen climate classification BSk).

Runways

Designator Length Width Surface Rops
7/25 3225 45 ASP No/No
Airport map: 
Aerial View: 

SKYbrary Partners:

Safety knowledge contributed by: